createdAt,value
2023-01-30T00:02:10.388Z,3.70
2023-01-30T00:04:38.943Z,3.80
2023-01-30T00:07:07.113Z,3.80
2023-01-30T00:09:36.720Z,3.80
2023-01-30T00:12:05.495Z,3.80
2023-01-30T00:14:33.661Z,3.80
2023-01-30T00:17:01.892Z,3.90
2023-01-30T00:19:30.058Z,3.90
2023-01-30T00:21:58.290Z,3.90
2023-01-30T00:24:26.662Z,3.90
2023-01-30T00:26:56.331Z,4.00
2023-01-30T00:29:24.603Z,4.00
2023-01-30T00:31:52.764Z,4.00
2023-01-30T00:34:20.994Z,4.00
2023-01-30T00:36:56.009Z,4.10
2023-01-30T00:39:34.742Z,4.00
2023-01-30T00:42:22.356Z,4.10
2023-01-30T00:45:08.539Z,4.10
2023-01-30T00:47:36.844Z,4.10
2023-01-30T00:50:05.695Z,4.10
2023-01-30T00:52:34.039Z,4.20
2023-01-30T00:55:02.304Z,4.30
2023-01-30T00:57:32.054Z,4.30
2023-01-30T01:00:00.386Z,4.30
2023-01-30T01:02:28.616Z,4.30
2023-01-30T01:04:56.840Z,4.30
2023-01-30T01:07:25.134Z,4.30
2023-01-30T01:09:53.366Z,4.40
2023-01-30T01:12:21.770Z,4.40
2023-01-30T01:14:51.462Z,4.40
2023-01-30T01:17:19.781Z,4.40
2023-01-30T01:19:48.128Z,4.40
2023-01-30T01:22:16.367Z,4.40
2023-01-30T01:24:44.614Z,4.40
2023-01-30T01:27:13.947Z,4.40
2023-01-30T01:29:42.168Z,4.40
2023-01-30T01:32:12.073Z,4.30
2023-01-30T01:34:41.430Z,4.30
2023-01-30T01:37:09.908Z,4.30
2023-01-30T01:39:51.955Z,4.30
2023-01-30T01:42:20.298Z,4.30
2023-01-30T01:45:03.623Z,4.30
2023-01-30T01:47:35.907Z,4.30
2023-01-30T01:50:06.635Z,4.30
2023-01-30T01:52:36.594Z,4.30
2023-01-30T01:55:08.170Z,4.30
2023-01-30T01:57:41.044Z,4.30
2023-01-30T02:00:12.945Z,4.30
2023-01-30T02:02:45.899Z,4.30
2023-01-30T02:05:16.610Z,4.30
2023-01-30T02:07:48.798Z,4.30
2023-01-30T02:10:20.923Z,4.30
2023-01-30T02:12:51.420Z,4.30
2023-01-30T02:15:21.788Z,4.40
2023-01-30T02:17:51.574Z,4.40
2023-01-30T02:20:28.804Z,4.40
2023-01-30T02:23:33.837Z,4.40
2023-01-30T02:26:33.864Z,4.40
2023-01-30T02:29:33.921Z,4.40
2023-01-30T02:32:08.995Z,4.40
2023-01-30T02:34:45.421Z,4.40
2023-01-30T02:37:31.171Z,4.50
2023-01-30T02:40:14.691Z,4.50
2023-01-30T02:42:47.813Z,4.50
2023-01-30T02:45:23.837Z,4.50
2023-01-30T02:47:59.130Z,4.50
2023-01-30T02:50:30.232Z,4.60
2023-01-30T02:52:59.521Z,4.60
2023-01-30T02:55:30.265Z,4.60
2023-01-30T02:57:59.207Z,4.60
2023-01-30T03:00:42.792Z,4.60
2023-01-30T03:03:32.386Z,4.70
2023-01-30T03:06:21.882Z,4.70
2023-01-30T03:09:03.606Z,4.70
2023-01-30T03:11:39.979Z,4.70
2023-01-30T03:14:15.366Z,4.80
2023-01-30T03:16:44.238Z,4.80
2023-01-30T03:19:15.307Z,4.80
2023-01-30T03:21:44.744Z,4.80
2023-01-30T03:24:13.824Z,4.80
2023-01-30T03:26:47.848Z,4.90
2023-01-30T03:29:16.365Z,4.90
2023-01-30T03:31:45.021Z,4.90
2023-01-30T03:34:15.344Z,4.90
2023-01-30T03:36:43.620Z,5.00
2023-01-30T03:39:12.059Z,5.00
2023-01-30T03:41:40.687Z,5.10
2023-01-30T03:44:09.431Z,5.10
2023-01-30T03:46:37.660Z,5.00
2023-01-30T03:49:05.915Z,5.10
2023-01-30T03:51:36.785Z,5.10
2023-01-30T03:54:05.215Z,5.00
2023-01-30T03:56:33.499Z,5.00
2023-01-30T03:59:02.164Z,5.10
2023-01-30T04:01:38.983Z,5.10
2023-01-30T04:04:07.587Z,5.00
2023-01-30T04:06:37.389Z,5.10
2023-01-30T04:09:06.704Z,5.10
2023-01-30T04:11:55.164Z,5.10
2023-01-30T04:14:24.293Z,5.10
2023-01-30T04:17:10.964Z,5.10
2023-01-30T04:19:59.472Z,5.10
2023-01-30T04:22:29.946Z,5.10
2023-01-30T04:24:58.161Z,5.10
2023-01-30T04:27:26.323Z,5.10
2023-01-30T04:30:09.932Z,5.00
2023-01-30T04:32:38.676Z,5.00
2023-01-30T04:35:07.501Z,5.10
2023-01-30T04:37:37.210Z,5.10
2023-01-30T04:40:06.774Z,5.10
2023-01-30T04:42:36.512Z,5.10
2023-01-30T04:45:28.725Z,5.10
2023-01-30T04:47:57.528Z,5.10
2023-01-30T04:50:26.610Z,5.10
2023-01-30T04:52:56.209Z,5.20
2023-01-30T04:55:24.413Z,5.20
2023-01-30T04:57:52.621Z,5.20
2023-01-30T05:00:21.334Z,5.20
2023-01-30T05:02:55.918Z,5.20
2023-01-30T05:05:24.398Z,5.20
2023-01-30T05:07:52.640Z,5.20
2023-01-30T05:10:22.560Z,5.30
2023-01-30T05:12:51.012Z,5.30
2023-01-30T05:15:19.610Z,5.30
2023-01-30T05:17:47.888Z,5.30
2023-01-30T05:20:16.179Z,5.30
2023-01-30T05:22:44.383Z,5.30
2023-01-30T05:25:12.765Z,5.30
2023-01-30T05:27:42.339Z,5.40
2023-01-30T05:30:11.914Z,5.40
2023-01-30T05:32:40.099Z,5.40
2023-01-30T05:35:09.531Z,5.40
2023-01-30T05:37:39.025Z,5.40
2023-01-30T05:40:09.051Z,5.40
2023-01-30T05:42:37.369Z,5.50
2023-01-30T05:45:08.259Z,5.50
2023-01-30T05:47:36.435Z,5.70
2023-01-30T05:50:04.944Z,5.60
2023-01-30T05:52:33.138Z,5.60
2023-01-30T05:55:01.572Z,5.60
2023-01-30T05:57:29.885Z,5.60
2023-01-30T05:59:58.138Z,5.60
2023-01-30T06:02:27.799Z,5.60
2023-01-30T06:04:55.994Z,5.60
2023-01-30T06:07:24.450Z,5.70
2023-01-30T06:09:52.664Z,5.70
2023-01-30T06:12:20.892Z,5.80
2023-01-30T06:14:49.157Z,5.70
2023-01-30T06:17:17.383Z,5.70
2023-01-30T06:19:46.995Z,5.70
2023-01-30T06:22:15.170Z,5.70
2023-01-30T06:24:43.350Z,5.80
2023-01-30T06:27:24.207Z,5.80
2023-01-30T06:29:55.373Z,5.90
2023-01-30T06:32:24.358Z,6.00
2023-01-30T06:34:53.953Z,6.00
2023-01-30T06:37:22.211Z,6.00
2023-01-30T06:39:50.485Z,6.10
2023-01-30T06:42:18.719Z,6.10
2023-01-30T06:44:46.887Z,6.10
2023-01-30T06:47:15.069Z,6.10
2023-01-30T06:49:43.315Z,6.20
2023-01-30T06:52:12.984Z,6.20
2023-01-30T06:54:41.130Z,6.30
2023-01-30T06:57:09.286Z,6.40
2023-01-30T06:59:38.188Z,6.40
2023-01-30T07:02:06.492Z,6.40
2023-01-30T07:04:35.047Z,6.40
2023-01-30T07:07:03.155Z,6.50
2023-01-30T07:09:32.822Z,6.70
2023-01-30T07:12:01.060Z,6.60
2023-01-30T07:14:29.339Z,6.60
2023-01-30T07:16:57.640Z,6.60
2023-01-30T07:19:25.960Z,6.60
2023-01-30T07:21:54.246Z,6.60
2023-01-30T07:24:22.649Z,6.50
2023-01-30T07:26:52.324Z,6.60
2023-01-30T07:29:20.674Z,6.50
2023-01-30T07:31:48.976Z,6.50
2023-01-30T07:34:17.556Z,6.60
2023-01-30T07:36:46.464Z,6.50
2023-01-30T07:39:14.950Z,6.50
2023-01-30T07:41:43.086Z,6.60
2023-01-30T07:44:14.420Z,6.60
2023-01-30T07:46:42.665Z,6.70
2023-01-30T07:49:11.644Z,6.60
2023-01-30T07:51:41.796Z,6.60
2023-01-30T07:54:10.077Z,6.60
2023-01-30T07:56:38.360Z,6.60
2023-01-30T07:59:06.688Z,6.70
2023-01-30T08:01:36.482Z,6.70
2023-01-30T08:04:04.762Z,6.70
2023-01-30T08:06:37.153Z,6.70
2023-01-30T08:09:05.789Z,6.70
2023-01-30T08:11:34.342Z,6.70
2023-01-30T08:14:02.651Z,6.70
2023-01-30T08:16:32.525Z,6.70
2023-01-30T08:19:02.371Z,6.70
2023-01-30T08:21:30.692Z,6.70
2023-01-30T08:24:00.946Z,6.70
2023-01-30T08:26:29.525Z,6.70
2023-01-30T08:28:57.789Z,6.70
2023-01-30T08:31:26.090Z,6.70
2023-01-30T08:33:54.243Z,6.70
2023-01-30T08:36:23.921Z,6.60
2023-01-30T08:38:52.170Z,6.60
2023-01-30T08:41:20.347Z,6.60
2023-01-30T08:43:48.562Z,6.70
2023-01-30T08:46:17.665Z,6.70
2023-01-30T08:48:50.024Z,6.70
2023-01-30T08:51:18.970Z,6.70
2023-01-30T08:53:48.607Z,6.80
2023-01-30T08:56:16.826Z,6.70
2023-01-30T08:58:46.753Z,6.70
2023-01-30T09:01:15.028Z,6.70
2023-01-30T09:03:43.871Z,6.80
2023-01-30T09:06:12.198Z,6.80
2023-01-30T09:08:40.573Z,6.90
2023-01-30T09:11:11.930Z,6.80
2023-01-30T09:13:43.496Z,6.80
2023-01-30T09:16:12.465Z,6.80
2023-01-30T09:18:41.797Z,6.90
2023-01-30T09:21:11.239Z,6.90
2023-01-30T09:23:40.054Z,6.90
2023-01-30T09:26:09.665Z,6.90
2023-01-30T09:28:38.121Z,6.90
2023-01-30T09:31:06.608Z,6.90
2023-01-30T09:33:35.052Z,6.90
2023-01-30T09:36:03.309Z,6.90
2023-01-30T09:38:31.667Z,6.90
2023-01-30T09:41:37.296Z,7.00
2023-01-30T09:44:18.508Z,7.00
2023-01-30T09:46:52.011Z,7.00
2023-01-30T09:49:33.022Z,6.90
2023-01-30T09:52:14.160Z,6.90
2023-01-30T09:54:45.965Z,6.90
2023-01-30T09:57:21.384Z,7.00
2023-01-30T09:59:59.102Z,7.00
2023-01-30T10:02:51.431Z,7.00
2023-01-30T10:05:20.093Z,7.00
2023-01-30T10:08:12.866Z,7.00
2023-01-30T10:10:55.073Z,6.90
2023-01-30T10:13:54.261Z,7.00
2023-01-30T10:16:28.460Z,7.10
2023-01-30T10:19:33.638Z,7.30
2023-01-30T10:22:17.704Z,7.30
2023-01-30T10:24:56.946Z,7.40
2023-01-30T10:27:26.826Z,7.40
2023-01-30T10:29:59.181Z,7.40
2023-01-30T10:32:33.987Z,7.40
2023-01-30T10:35:07.843Z,7.30
2023-01-30T10:37:45.828Z,7.20
2023-01-30T10:40:21.642Z,7.20
2023-01-30T10:42:56.503Z,7.20
2023-01-30T10:45:34.723Z,7.20
2023-01-30T10:48:42.207Z,7.20
2023-01-30T10:51:24.468Z,7.30
2023-01-30T10:53:57.745Z,7.30
2023-01-30T10:56:36.013Z,7.40
2023-01-30T10:59:16.118Z,7.40
2023-01-30T11:01:51.417Z,7.40
2023-01-30T11:04:27.489Z,7.50
2023-01-30T11:06:57.780Z,7.40
2023-01-30T11:09:26.111Z,7.40
2023-01-30T11:11:55.597Z,7.50
2023-01-30T11:14:23.923Z,7.50
2023-01-30T11:16:55.734Z,7.40
2023-01-30T11:19:25.933Z,7.30
2023-01-30T11:21:56.637Z,7.30
2023-01-30T11:24:30.502Z,7.30
2023-01-30T11:27:11.272Z,7.30
2023-01-30T11:29:40.913Z,7.30
2023-01-30T11:32:20.749Z,7.30
2023-01-30T11:35:05.457Z,7.30
2023-01-30T11:37:35.666Z,7.40
2023-01-30T11:40:21.451Z,7.20
2023-01-30T11:42:52.292Z,7.30
2023-01-30T11:45:22.133Z,7.30
2023-01-30T11:48:03.916Z,7.30
2023-01-30T11:50:36.370Z,7.10
2023-01-30T11:53:31.887Z,7.20
2023-01-30T11:56:08.547Z,7.20
2023-01-30T11:58:41.120Z,7.30
2023-01-30T12:01:11.902Z,7.40
2023-01-30T12:03:48.715Z,7.40
2023-01-30T12:06:30.597Z,7.40
2023-01-30T12:08:59.772Z,7.40
2023-01-30T12:11:42.337Z,7.50
2023-01-30T12:14:21.236Z,7.60
2023-01-30T12:16:57.024Z,7.70
2023-01-30T12:19:37.291Z,7.70
2023-01-30T12:22:19.294Z,7.70
2023-01-30T12:24:54.134Z,7.80
2023-01-30T12:27:29.160Z,7.90
2023-01-30T12:30:03.282Z,7.80
2023-01-30T12:32:34.744Z,7.90
2023-01-30T12:35:16.270Z,7.90
2023-01-30T12:37:59.668Z,7.90
2023-01-30T12:40:39.723Z,7.90
2023-01-30T12:43:35.083Z,7.90
2023-01-30T12:46:16.353Z,8.00
2023-01-30T12:49:10.937Z,7.90
2023-01-30T12:51:58.700Z,8.00
2023-01-30T12:54:43.639Z,8.00
2023-01-30T12:57:23.460Z,8.00
2023-01-30T13:00:05.401Z,8.00
2023-01-30T13:02:49.880Z,7.80
2023-01-30T13:05:34.093Z,7.80
2023-01-30T13:08:18.635Z,7.80
2023-01-30T13:10:53.138Z,7.70
2023-01-30T13:13:27.739Z,7.80
2023-01-30T13:16:05.422Z,7.80
2023-01-30T13:18:38.735Z,7.80
2023-01-30T13:21:13.342Z,7.90
2023-01-30T13:23:54.597Z,7.90
2023-01-30T13:26:26.031Z,8.00
2023-01-30T13:28:59.867Z,8.10
2023-01-30T13:31:31.167Z,8.20
2023-01-30T13:34:07.650Z,8.20
2023-01-30T13:36:44.754Z,8.20
2023-01-30T13:41:59.411Z,8.20
2023-01-30T13:44:31.455Z,8.20
2023-01-30T13:47:04.979Z,8.20
2023-01-30T13:49:46.001Z,8.20
2023-01-30T13:52:23.339Z,8.40
2023-01-30T13:55:00.720Z,8.30
2023-01-30T13:57:44.617Z,8.30
2023-01-30T14:00:28.406Z,8.30
2023-01-30T14:03:16.655Z,8.30
2023-01-30T14:06:13.162Z,8.30
2023-01-30T14:08:50.992Z,8.30
2023-01-30T14:11:42.743Z,8.30
2023-01-30T14:14:29.957Z,8.40
2023-01-30T14:17:09.951Z,8.30
2023-01-30T14:19:42.355Z,8.30
2023-01-30T14:22:23.571Z,8.30
2023-01-30T14:25:25.261Z,8.40
2023-01-30T14:27:56.851Z,8.40
2023-01-30T14:30:39.028Z,8.40
2023-01-30T14:33:36.135Z,8.40
2023-01-30T14:36:35.247Z,8.40
2023-01-30T14:39:38.414Z,8.30
2023-01-30T14:42:24.563Z,8.20
2023-01-30T14:45:04.836Z,8.00
2023-01-30T14:47:46.459Z,7.90
2023-01-30T14:50:22.549Z,7.50
2023-01-30T14:52:55.782Z,7.30
2023-01-30T14:55:29.508Z,7.20
2023-01-30T14:58:00.008Z,7.20
2023-01-30T15:00:32.337Z,7.30
2023-01-30T15:03:03.391Z,7.40
2023-01-30T15:05:42.390Z,7.50
2023-01-30T15:08:16.163Z,7.70
2023-01-30T15:11:06.236Z,7.70
2023-01-30T15:13:50.167Z,7.60
2023-01-30T15:16:49.529Z,7.50
2023-01-30T15:19:44.988Z,7.60
2023-01-30T15:22:24.532Z,7.50
2023-01-30T15:25:16.746Z,7.40
2023-01-30T15:28:00.833Z,7.40
2023-01-30T15:30:44.988Z,7.40
2023-01-30T15:33:29.301Z,7.30
2023-01-30T15:35:59.063Z,7.30
2023-01-30T15:38:31.758Z,7.30
2023-01-30T15:41:03.987Z,7.20
2023-01-30T15:43:57.189Z,7.20
2023-01-30T15:46:34.664Z,7.20
2023-01-30T15:49:19.102Z,7.20
2023-01-30T15:51:47.382Z,7.20
2023-01-30T15:54:20.271Z,7.30
2023-01-30T15:56:50.092Z,7.20
2023-01-30T15:59:29.450Z,7.20
2023-01-30T16:02:06.092Z,7.20
2023-01-30T16:04:34.432Z,7.20
2023-01-30T16:07:16.026Z,7.20
2023-01-30T16:10:06.722Z,7.20
2023-01-30T16:12:36.507Z,7.20
2023-01-30T16:15:18.842Z,7.20
2023-01-30T16:17:56.293Z,7.20
2023-01-30T16:20:24.778Z,7.20
2023-01-30T16:22:53.338Z,7.30
2023-01-30T16:25:26.006Z,7.20
2023-01-30T16:27:54.495Z,7.20
2023-01-30T16:30:25.536Z,7.30
2023-01-30T16:32:56.159Z,7.30
2023-01-30T16:35:34.169Z,7.30
2023-01-30T16:38:05.614Z,7.20
2023-01-30T16:40:46.816Z,7.30
2023-01-30T16:43:21.628Z,7.30
2023-01-30T16:46:22.735Z,7.30
2023-01-30T16:48:51.568Z,7.30
2023-01-30T16:51:28.690Z,7.30
2023-01-30T16:54:01.238Z,7.30
2023-01-30T16:56:32.918Z,7.30
2023-01-30T16:59:02.819Z,7.30
2023-01-30T17:01:41.371Z,7.30
2023-01-30T17:04:20.659Z,7.30
2023-01-30T17:06:55.432Z,7.30
2023-01-30T17:09:41.642Z,7.30
2023-01-30T17:12:45.414Z,7.20
2023-01-30T17:15:36.593Z,7.30
2023-01-30T17:18:05.142Z,7.30
2023-01-30T17:20:45.428Z,7.20
2023-01-30T17:23:18.509Z,7.20
2023-01-30T17:25:49.308Z,7.20
2023-01-30T17:28:21.649Z,7.20
2023-01-30T17:30:51.027Z,7.20
2023-01-30T17:33:20.136Z,7.10
2023-01-30T17:35:48.518Z,7.10
2023-01-30T17:38:16.713Z,7.20
2023-01-30T17:40:45.447Z,7.20
2023-01-30T17:43:13.707Z,7.20
2023-01-30T17:45:43.316Z,7.20
2023-01-30T17:48:14.155Z,7.20
2023-01-30T17:50:42.837Z,7.20
2023-01-30T17:53:11.259Z,7.20
2023-01-30T17:55:39.700Z,7.10
2023-01-30T17:58:07.937Z,7.10
2023-01-30T18:00:36.170Z,7.10
2023-01-30T18:03:05.738Z,7.10
2023-01-30T18:05:34.336Z,7.10
2023-01-30T18:08:02.780Z,7.10
2023-01-30T18:10:31.323Z,7.10
2023-01-30T18:12:59.677Z,7.00
2023-01-30T18:15:28.394Z,7.00
2023-01-30T18:17:56.915Z,7.00
2023-01-30T18:20:26.608Z,7.10
2023-01-30T18:22:54.998Z,7.10
2023-01-30T18:25:23.310Z,7.00
2023-01-30T18:27:51.637Z,7.00
2023-01-30T18:30:20.546Z,7.00
2023-01-30T18:32:53.336Z,6.90
2023-01-30T18:35:23.181Z,6.90
2023-01-30T18:37:53.017Z,6.70
2023-01-30T18:40:22.227Z,6.80
2023-01-30T18:42:50.942Z,6.80
2023-01-30T18:45:19.184Z,6.80
2023-01-30T18:47:47.463Z,6.80
2023-01-30T18:50:15.695Z,6.80
2023-01-30T18:52:43.994Z,6.80
2023-01-30T18:55:13.970Z,6.90
2023-01-30T18:57:42.255Z,6.90
2023-01-30T19:00:11.692Z,6.90
2023-01-30T19:02:39.973Z,6.80
2023-01-30T19:05:09.115Z,6.80
2023-01-30T19:07:37.617Z,6.70
2023-01-30T19:10:06.572Z,6.60
2023-01-30T19:12:54.019Z,6.60
2023-01-30T19:15:22.484Z,6.60
2023-01-30T19:17:50.645Z,6.60
2023-01-30T19:20:21.479Z,6.60
2023-01-30T19:22:51.645Z,6.60
2023-01-30T19:25:19.878Z,6.60
2023-01-30T19:27:49.546Z,6.60
2023-01-30T19:30:18.434Z,6.50
2023-01-30T19:32:46.828Z,6.50
2023-01-30T19:35:15.035Z,6.50
2023-01-30T19:37:43.340Z,6.50
2023-01-30T19:40:13.138Z,6.50
2023-01-30T19:42:44.432Z,6.40
2023-01-30T19:45:14.966Z,6.40
2023-01-30T19:47:43.190Z,6.40
2023-01-30T19:50:12.497Z,6.40
2023-01-30T19:52:41.921Z,6.30
2023-01-30T19:55:10.583Z,6.30
2023-01-30T19:57:39.036Z,6.20
2023-01-30T20:00:08.700Z,6.20
2023-01-30T20:02:38.477Z,6.10
2023-01-30T20:05:07.703Z,6.00
2023-01-30T20:07:37.321Z,5.90
2023-01-30T20:10:06.298Z,5.80
2023-01-30T20:12:35.693Z,5.80
2023-01-30T20:15:04.826Z,5.80
2023-01-30T20:17:33.674Z,5.80
2023-01-30T20:20:03.613Z,5.80
2023-01-30T20:22:31.997Z,5.70
2023-01-30T20:25:00.247Z,5.70
2023-01-30T20:27:28.747Z,5.60
2023-01-30T20:29:56.986Z,5.60
2023-01-30T20:32:25.194Z,5.60
2023-01-30T20:34:53.348Z,5.50
2023-01-30T20:37:23.618Z,5.60
2023-01-30T20:39:52.014Z,5.60
2023-01-30T20:42:20.237Z,5.50
2023-01-30T20:44:48.757Z,5.60
2023-01-30T20:47:16.962Z,5.50
2023-01-30T20:49:45.211Z,5.50
2023-01-30T20:52:13.543Z,5.70
2023-01-30T20:54:43.129Z,5.70
2023-01-30T20:57:11.772Z,5.70
2023-01-30T20:59:40.589Z,5.80
2023-01-30T21:02:10.088Z,5.80
2023-01-30T21:04:39.512Z,5.70
2023-01-30T21:07:07.790Z,5.80
2023-01-30T21:09:35.983Z,5.80
2023-01-30T21:12:05.602Z,5.80
2023-01-30T21:14:33.827Z,5.80
2023-01-30T21:17:02.045Z,5.80
2023-01-30T21:19:30.343Z,5.80
2023-01-30T21:21:59.480Z,5.80
2023-01-30T21:24:29.637Z,5.80
2023-01-30T21:26:58.494Z,5.80
2023-01-30T21:29:30.000Z,5.80
2023-01-30T21:31:59.166Z,5.90
2023-01-30T21:34:27.537Z,5.90
2023-01-30T21:37:13.330Z,5.90
2023-01-30T21:39:59.285Z,5.90
2023-01-30T21:42:44.748Z,5.90
2023-01-30T21:45:15.425Z,5.90
2023-01-30T21:47:43.630Z,5.90
2023-01-30T21:50:12.414Z,5.90
2023-01-30T21:52:40.763Z,5.90
2023-01-30T21:55:10.023Z,5.90
2023-01-30T21:57:38.825Z,5.90
2023-01-30T22:00:08.417Z,5.90
2023-01-30T22:02:38.024Z,5.80
2023-01-30T22:05:07.185Z,5.90
2023-01-30T22:07:35.442Z,5.80
2023-01-30T22:10:03.899Z,5.80
2023-01-30T22:12:32.503Z,5.80
2023-01-30T22:15:00.788Z,5.80
2023-01-30T22:17:29.081Z,5.80
2023-01-30T22:19:58.716Z,5.80
2023-01-30T22:22:27.084Z,5.80
2023-01-30T22:24:55.390Z,5.80
2023-01-30T22:27:23.552Z,5.80
2023-01-30T22:29:51.771Z,5.70
2023-01-30T22:32:19.953Z,5.80
2023-01-30T22:34:48.212Z,5.80
2023-01-30T22:37:17.742Z,5.80
2023-01-30T22:39:45.949Z,5.70
2023-01-30T22:42:14.396Z,5.70
2023-01-30T22:44:42.734Z,5.70
2023-01-30T22:47:11.285Z,5.60
2023-01-30T22:49:39.697Z,5.60
2023-01-30T22:52:07.887Z,5.60
2023-01-30T22:54:37.498Z,5.60
2023-01-30T22:57:05.676Z,5.50
2023-01-30T22:59:33.885Z,5.40
2023-01-30T23:02:02.289Z,5.30
2023-01-30T23:04:31.386Z,5.30
2023-01-30T23:06:59.725Z,5.20
2023-01-30T23:09:27.974Z,5.10
2023-01-30T23:12:16.279Z,5.10
2023-01-30T23:14:45.114Z,5.10
2023-01-30T23:17:31.231Z,5.10
2023-01-30T23:19:59.727Z,5.10
2023-01-30T23:22:28.085Z,5.20
2023-01-30T23:24:56.582Z,5.10
2023-01-30T23:27:26.314Z,5.10
2023-01-30T23:29:54.536Z,5.10
2023-01-30T23:32:23.800Z,5.10
2023-01-30T23:34:52.047Z,5.00
2023-01-30T23:37:40.956Z,5.00
2023-01-30T23:40:11.070Z,5.00
2023-01-30T23:42:41.024Z,4.90
2023-01-30T23:45:10.312Z,4.80
2023-01-30T23:47:38.899Z,4.70
2023-01-30T23:50:07.644Z,4.80
2023-01-30T23:52:36.323Z,4.70
2023-01-30T23:55:04.884Z,4.70
2023-01-30T23:57:33.086Z,4.70
